Valdez, AK

6:00 AM AKDT on July 25, 2016 (GMT -0800)
Valdez | | Change Station

Elev 121 ft 61.13 °N, 146.25 °W | Updated 4 minutes ago

Overcast
Overcast
50 °F
Feels Like 50 °F
N
4
Wind Variable Wind from NE

Today
High -- | Low -- °F
--% Chance of Precip.
Yesterday
High -- | Low -- °F
Precip. -- in
Pressure 29.81 in
Visibility 9.0 miles
Clouds Overcast 6000 ft
Dew Point 46 °F
Humidity 87%
Rainfall 0.31 in
Snow Depth Not available.
5:02 AM 10:39 PM
Waning Gibbous, 65% visible
METAR PAVD 251356Z 04003KT 9SM OVC060 10/08 A2981 RMK AO1 P0004
Pressure 29.81 in
Visibility 9.0 miles
Clouds Overcast 6000 ft
Dew Point 46 °F
Humidity 87%
Rainfall 0.31 in
Snow Depth Not available.
5:02 AM 10:39 PM
Waning Gibbous, 65% visible
METAR PAVD 251356Z 04003KT 9SM OVC060 10/08 A2981 RMK AO1 P0004

10-Day Weather Forecast

Almanac

Astronomy

Jul. 25, 2016 Rise Set
Actual Time
Civil Twilight
Nautical Twilight
Astronomical Twilight
Moon
Length of Visible Light
Length of Day
Tomorrow will be .
, % of the Moon is Illuminated

Today's Extremes

State Highs State Lows

Community

WunderPhotos

Upload Photos

1,927,300 photos uploaded!

WunderBlog® & News

Nearby

Air Quality

  Air Quality AQ Index Pollutant
Not available.

Snow Depth

Station Depth Elevation

Earthquake Activity

City Distance Mag. Time & Date
Minimum magnitude displayed is 2.5.

Coastal Water Temperatures

Place Temperature

Stations

Nearby Weather Stations

Station Location Temp. Windchill Dew Point Humidity Wind Precip. Elev Updated Type
                   

Watches & Warnings

There are currently no watches in effect.